createdAt,value
2019-03-09T00:00:49.915Z,7.85
2019-03-09T00:04:57.074Z,7.89
2019-03-09T00:09:05.089Z,7.89
2019-03-09T00:13:14.166Z,7.89
2019-03-09T00:17:20.998Z,7.89
2019-03-09T00:21:27.926Z,7.96
2019-03-09T00:25:38.652Z,8.06
2019-03-09T00:29:56.448Z,8.15
2019-03-09T00:34:03.698Z,8.23
2019-03-09T00:38:10.535Z,8.33
2019-03-09T00:42:17.454Z,8.43
2019-03-09T00:46:24.371Z,8.51
2019-03-09T00:50:31.342Z,8.61
2019-03-09T00:54:38.164Z,8.75
2019-03-09T00:58:45.016Z,8.79
2019-03-09T01:02:51.869Z,8.83
2019-03-09T01:06:58.792Z,8.88
2019-03-09T01:11:06.144Z,8.91
2019-03-09T01:15:15.887Z,8.97
2019-03-09T01:19:22.831Z,9.00
2019-03-09T01:23:29.824Z,9.03
2019-03-09T01:27:36.705Z,9.06
2019-03-09T01:31:43.620Z,9.09
2019-03-09T01:35:50.493Z,9.10
2019-03-09T01:39:57.399Z,9.11
2019-03-09T01:44:04.332Z,9.12
2019-03-09T01:48:11.248Z,9.16
2019-03-09T01:52:18.209Z,9.18
2019-03-09T01:56:25.199Z,9.21
2019-03-09T02:00:32.220Z,9.19
2019-03-09T02:04:39.081Z,9.22
2019-03-09T02:08:45.945Z,9.22
2019-03-09T02:12:52.984Z,9.21
2019-03-09T02:16:59.942Z,9.22
2019-03-09T02:21:06.859Z,9.25
2019-03-09T02:25:13.912Z,9.16
2019-03-09T02:29:20.758Z,9.20
2019-03-09T02:33:27.643Z,9.19
2019-03-09T02:37:34.564Z,9.16
2019-03-09T02:41:41.524Z,9.16
2019-03-09T02:45:48.475Z,9.12
2019-03-09T02:49:55.530Z,9.14
2019-03-09T02:54:02.505Z,9.16
2019-03-09T02:58:09.384Z,9.13
2019-03-09T03:02:30.064Z,9.09
2019-03-09T03:06:36.878Z,9.04
2019-03-09T03:10:45.007Z,9.01
2019-03-09T03:14:51.849Z,8.98
2019-03-09T03:18:58.758Z,9.01
2019-03-09T03:23:05.766Z,9.06
2019-03-09T03:27:12.613Z,9.05
2019-03-09T03:31:19.466Z,8.88
2019-03-09T03:35:26.302Z,8.65
2019-03-09T03:39:34.035Z,8.55
2019-03-09T03:43:40.878Z,8.53
2019-03-09T03:47:47.769Z,8.54
2019-03-09T03:51:54.638Z,8.52
2019-03-09T03:56:01.495Z,8.41
2019-03-09T04:00:09.727Z,8.37
2019-03-09T04:04:16.577Z,8.33
2019-03-09T04:08:23.783Z,8.26
2019-03-09T04:12:30.656Z,8.31
2019-03-09T04:16:37.459Z,8.25
2019-03-09T04:20:44.386Z,8.29
2019-03-09T04:24:54.410Z,8.28
2019-03-09T04:29:01.302Z,8.30
2019-03-09T04:33:08.155Z,8.28
2019-03-09T04:37:15.036Z,8.27
2019-03-09T04:41:23.485Z,8.24
2019-03-09T04:45:30.396Z,8.35
2019-03-09T04:49:37.388Z,8.27
2019-03-09T04:53:44.246Z,8.29
2019-03-09T04:57:51.369Z,8.17
2019-03-09T05:01:58.157Z,8.08
2019-03-09T05:06:05.299Z,8.10
2019-03-09T05:10:39.296Z,7.99
2019-03-09T05:14:46.137Z,8.10
2019-03-09T05:18:53.081Z,8.08
2019-03-09T05:22:59.885Z,8.06
2019-03-09T05:27:06.747Z,7.99
2019-03-09T05:31:13.623Z,7.98
2019-03-09T05:35:20.483Z,7.99
2019-03-09T05:39:27.313Z,8.01
2019-03-09T05:43:34.133Z,8.00
2019-03-09T05:47:40.952Z,7.97
2019-03-09T05:52:31.676Z,8.04
2019-03-09T05:56:39.581Z,8.06
2019-03-09T06:00:46.448Z,8.02
2019-03-09T06:04:53.666Z,8.02
2019-03-09T06:09:00.565Z,8.13
2019-03-09T06:13:09.078Z,8.07
2019-03-09T06:17:15.873Z,8.08
2019-03-09T06:21:22.835Z,8.15
2019-03-09T06:25:29.740Z,8.13
2019-03-09T06:29:36.618Z,8.13
2019-03-09T06:34:13.302Z,8.15
2019-03-09T06:39:01.423Z,8.18
2019-03-09T06:43:09.884Z,8.23
2019-03-09T06:47:16.732Z,8.25
2019-03-09T06:51:23.601Z,8.31
2019-03-09T06:55:30.827Z,8.33
2019-03-09T06:59:37.648Z,8.33
2019-03-09T07:03:45.598Z,8.38
2019-03-09T07:07:52.461Z,8.49
2019-03-09T07:11:59.324Z,8.53
2019-03-09T07:16:06.272Z,8.55
2019-03-09T07:20:13.262Z,8.68
2019-03-09T07:24:21.110Z,8.83
2019-03-09T07:28:28.014Z,9.03
2019-03-09T07:32:34.972Z,9.00
2019-03-09T07:36:41.995Z,9.10
2019-03-09T07:40:48.862Z,9.30
2019-03-09T07:44:55.770Z,9.12
2019-03-09T07:49:02.628Z,9.46
2019-03-09T07:53:10.631Z,9.36
2019-03-09T07:57:17.584Z,9.38
2019-03-09T08:01:24.409Z,9.41
2019-03-09T08:05:31.371Z,9.41
2019-03-09T08:09:38.305Z,9.37
2019-03-09T08:13:45.154Z,9.30
2019-03-09T08:17:52.012Z,9.39
2019-03-09T08:21:58.871Z,9.37
2019-03-09T08:26:05.802Z,9.65
2019-03-09T08:30:19.278Z,9.67
2019-03-09T08:34:26.170Z,9.64
2019-03-09T08:38:33.097Z,9.68
2019-03-09T08:42:39.984Z,9.72
2019-03-09T08:46:46.829Z,9.75
2019-03-09T08:50:53.951Z,9.83
2019-03-09T08:55:00.878Z,9.83
2019-03-09T08:59:07.787Z,9.84
2019-03-09T09:03:14.723Z,9.92
2019-03-09T09:07:22.494Z,9.89
2019-03-09T09:11:29.491Z,10.06
2019-03-09T09:15:36.385Z,10.08
2019-03-09T09:19:43.205Z,10.11
2019-03-09T09:23:50.085Z,10.14
2019-03-09T09:27:58.217Z,10.26
2019-03-09T09:32:05.938Z,10.24
2019-03-09T09:36:13.064Z,10.42
2019-03-09T09:40:21.551Z,10.45
2019-03-09T09:44:29.524Z,10.59
2019-03-09T09:48:37.687Z,10.72
2019-03-09T09:52:44.668Z,10.73
2019-03-09T09:56:52.546Z,10.97
2019-03-09T10:00:59.495Z,11.03
2019-03-09T10:05:06.828Z,11.16
2019-03-09T10:09:13.746Z,11.23
2019-03-09T10:13:20.564Z,11.15
2019-03-09T10:17:29.091Z,11.29
2019-03-09T10:21:36.007Z,11.31
2019-03-09T10:25:42.918Z,11.31
2019-03-09T10:29:49.908Z,11.46
2019-03-09T10:33:58.038Z,11.46
2019-03-09T10:38:04.973Z,11.69
2019-03-09T10:42:11.953Z,11.60
2019-03-09T10:46:21.789Z,11.80
2019-03-09T10:50:29.352Z,11.75
2019-03-09T10:54:36.562Z,11.69
2019-03-09T10:58:43.581Z,11.72
2019-03-09T11:02:53.291Z,11.76
2019-03-09T11:07:00.148Z,11.80
2019-03-09T11:11:08.461Z,11.89
2019-03-09T11:15:19.273Z,12.06
2019-03-09T11:19:26.266Z,11.95
2019-03-09T11:23:34.419Z,11.98
2019-03-09T11:27:43.582Z,11.90
2019-03-09T11:31:52.043Z,12.04
2019-03-09T11:35:59.024Z,12.13
2019-03-09T11:40:05.935Z,12.23
2019-03-09T11:44:12.845Z,12.05
2019-03-09T11:48:19.859Z,12.01
2019-03-09T11:52:29.080Z,12.10
2019-03-09T11:56:35.920Z,11.99
2019-03-09T12:00:43.466Z,11.90
2019-03-09T12:04:50.372Z,11.86
2019-03-09T12:09:01.527Z,11.93
2019-03-09T12:13:15.099Z,11.93
2019-03-09T12:17:19.127Z,11.92
2019-03-09T12:21:29.184Z,11.88
2019-03-09T12:25:36.268Z,11.76
2019-03-09T12:29:43.322Z,11.84
2019-03-09T12:33:50.493Z,11.85
2019-03-09T12:37:57.605Z,11.79
2019-03-09T12:42:05.328Z,11.69
2019-03-09T12:46:13.486Z,11.66
2019-03-09T12:50:21.866Z,11.78
2019-03-09T12:54:29.916Z,11.76
2019-03-09T12:58:36.997Z,11.86
2019-03-09T13:02:44.036Z,11.80
2019-03-09T13:06:50.999Z,11.87
2019-03-09T13:10:57.909Z,11.97
2019-03-09T13:15:05.653Z,12.09
2019-03-09T13:19:12.662Z,11.91
2019-03-09T13:23:20.042Z,11.94
2019-03-09T13:27:27.627Z,12.10
2019-03-09T13:31:35.286Z,11.91
2019-03-09T13:35:43.239Z,11.76
2019-03-09T13:39:50.161Z,12.09
2019-03-09T13:43:57.478Z,12.32
2019-03-09T13:48:05.688Z,12.21
2019-03-09T13:52:13.643Z,12.44
2019-03-09T13:56:20.734Z,12.84
2019-03-09T14:00:27.874Z,12.75
2019-03-09T14:04:34.823Z,12.82
2019-03-09T14:08:45.113Z,12.64
2019-03-09T14:12:53.955Z,12.34
2019-03-09T14:17:00.929Z,12.99
2019-03-09T14:21:07.947Z,12.93
2019-03-09T14:25:16.819Z,12.50
2019-03-09T14:29:23.800Z,12.69
2019-03-09T14:33:31.038Z,12.58
2019-03-09T14:37:38.422Z,12.48
2019-03-09T14:41:45.376Z,12.24
2019-03-09T14:45:53.674Z,12.46
2019-03-09T14:50:00.648Z,12.43
2019-03-09T14:54:07.431Z,12.18
2019-03-09T14:58:14.483Z,12.48
2019-03-09T15:02:21.531Z,12.55
2019-03-09T15:06:28.653Z,12.72
2019-03-09T15:10:35.559Z,12.55
2019-03-09T15:14:42.448Z,12.50
2019-03-09T15:18:49.371Z,12.34
2019-03-09T15:22:57.356Z,12.29
2019-03-09T15:27:04.247Z,12.34
2019-03-09T15:31:11.343Z,12.33
2019-03-09T15:35:18.344Z,12.42
2019-03-09T15:39:25.375Z,12.30
2019-03-09T15:43:32.504Z,12.31
2019-03-09T15:47:39.703Z,12.29
2019-03-09T15:51:46.662Z,12.34
2019-03-09T15:55:53.544Z,12.28
2019-03-09T16:00:00.468Z,12.35
2019-03-09T16:04:07.627Z,12.38
2019-03-09T16:08:14.692Z,12.36
2019-03-09T16:12:21.638Z,12.41
2019-03-09T16:16:28.700Z,12.47
2019-03-09T16:20:35.717Z,12.50
2019-03-09T16:24:43.557Z,12.64
2019-03-09T16:29:11.240Z,12.70
2019-03-09T16:33:18.327Z,12.76
2019-03-09T16:37:25.257Z,12.76
2019-03-09T16:41:33.240Z,12.76
2019-03-09T16:45:40.567Z,12.69
2019-03-09T16:49:47.466Z,12.71
2019-03-09T16:53:54.400Z,12.65
2019-03-09T16:58:01.240Z,12.65
2019-03-09T17:02:09.221Z,12.59
2019-03-09T17:06:16.113Z,12.57
2019-03-09T17:10:23.058Z,12.54
2019-03-09T17:14:30.329Z,12.50
2019-03-09T17:18:37.705Z,12.42
2019-03-09T17:22:44.560Z,12.38
2019-03-09T17:26:51.505Z,12.35
2019-03-09T17:30:58.572Z,12.33
2019-03-09T17:35:05.639Z,12.26
2019-03-09T17:39:13.194Z,12.25
2019-03-09T17:43:20.088Z,12.24
2019-03-09T17:47:27.373Z,12.17
2019-03-09T17:51:34.352Z,12.12
2019-03-09T17:55:41.280Z,12.20
2019-03-09T17:59:48.140Z,12.21
2019-03-09T18:03:56.349Z,12.20
2019-03-09T18:08:03.341Z,12.21
2019-03-09T18:12:10.224Z,12.16
2019-03-09T18:16:17.574Z,12.16
2019-03-09T18:20:24.468Z,12.11
2019-03-09T18:24:31.606Z,12.09
2019-03-09T18:28:38.511Z,12.18
2019-03-09T18:32:45.381Z,12.11
2019-03-09T18:36:52.202Z,11.83
2019-03-09T18:40:58.991Z,11.45
2019-03-09T18:45:06.459Z,10.71
2019-03-09T18:49:13.281Z,10.57
2019-03-09T18:53:20.176Z,10.24
2019-03-09T18:57:27.168Z,10.37
2019-03-09T19:01:34.026Z,9.91
2019-03-09T19:05:40.951Z,9.97
2019-03-09T19:09:47.864Z,9.87
2019-03-09T19:13:54.899Z,9.63
2019-03-09T19:18:01.899Z,9.82
2019-03-09T19:22:09.146Z,9.55
2019-03-09T19:26:16.210Z,9.45
2019-03-09T19:30:25.794Z,9.61
2019-03-09T19:34:32.689Z,9.42
2019-03-09T19:38:39.587Z,9.53
2019-03-09T19:42:56.384Z,9.34
2019-03-09T19:47:03.397Z,9.24
2019-03-09T19:51:10.238Z,9.49
2019-03-09T19:55:17.253Z,9.39
2019-03-09T19:59:24.373Z,9.42
2019-03-09T20:03:31.443Z,9.50
2019-03-09T20:07:38.620Z,9.51
2019-03-09T20:11:45.530Z,9.47
2019-03-09T20:15:52.439Z,9.52
2019-03-09T20:19:59.669Z,9.43
2019-03-09T20:24:06.550Z,9.60
2019-03-09T20:28:13.446Z,9.54
2019-03-09T20:32:20.380Z,9.53
2019-03-09T20:36:27.353Z,9.39
2019-03-09T20:40:40.643Z,9.48
2019-03-09T20:44:48.044Z,9.33
2019-03-09T20:48:54.992Z,9.38
2019-03-09T20:53:03.064Z,9.45
2019-03-09T20:57:09.955Z,9.23
2019-03-09T21:01:16.928Z,9.28
2019-03-09T21:05:23.950Z,9.17
2019-03-09T21:09:31.489Z,9.38
2019-03-09T21:13:38.739Z,9.38
2019-03-09T21:17:45.862Z,9.40
2019-03-09T21:21:53.083Z,9.38
2019-03-09T21:26:00.007Z,9.37
2019-03-09T21:30:07.844Z,9.38
2019-03-09T21:34:15.259Z,9.43
2019-03-09T21:38:22.274Z,9.36
2019-03-09T21:42:29.272Z,9.39
2019-03-09T21:46:36.225Z,9.27
2019-03-09T21:50:43.456Z,9.28
2019-03-09T21:54:50.425Z,9.33
2019-03-09T21:58:57.525Z,9.36
2019-03-09T22:03:04.542Z,9.31
2019-03-09T22:07:11.395Z,9.38
2019-03-09T22:11:18.475Z,9.38
2019-03-09T22:15:25.373Z,9.44
2019-03-09T22:19:32.392Z,9.43
2019-03-09T22:23:44.036Z,9.43
2019-03-09T22:27:47.888Z,9.48
2019-03-09T22:31:54.714Z,9.48
2019-03-09T22:36:01.745Z,9.43
2019-03-09T22:40:12.583Z,9.52
2019-03-09T22:44:19.596Z,9.48
2019-03-09T22:48:28.360Z,9.58
2019-03-09T22:52:35.224Z,9.57
2019-03-09T22:56:42.147Z,9.44
2019-03-09T23:00:49.403Z,9.58
2019-03-09T23:05:05.136Z,9.40
2019-03-09T23:09:12.674Z,9.27
2019-03-09T23:13:20.082Z,9.30
2019-03-09T23:17:27.385Z,9.40
2019-03-09T23:21:34.546Z,9.43
2019-03-09T23:25:41.558Z,9.53
2019-03-09T23:29:48.463Z,9.59
2019-03-09T23:33:55.367Z,9.79
2019-03-09T23:38:02.440Z,9.84
2019-03-09T23:42:09.582Z,9.83
2019-03-09T23:46:16.532Z,9.81
2019-03-09T23:50:23.786Z,9.98
2019-03-09T23:54:30.696Z,10.12
2019-03-09T23:58:37.922Z,10.10
